createdAt,value
2023-03-26T00:01:47.163Z,100691.25
2023-03-26T00:04:14.922Z,100687.97
2023-03-26T00:06:42.624Z,100698.50
2023-03-26T00:09:13.777Z,100679.41
2023-03-26T00:11:41.681Z,100682.84
2023-03-26T00:14:14.004Z,100680.59
2023-03-26T00:16:43.779Z,100674.16
2023-03-26T00:19:11.940Z,100681.41
2023-03-26T00:21:39.941Z,100685.16
2023-03-26T00:24:10.007Z,100684.94
2023-03-26T00:26:38.854Z,100681.41
2023-03-26T00:29:08.332Z,100681.66
2023-03-26T00:31:37.979Z,100677.09
2023-03-26T00:34:07.092Z,100672.75
2023-03-26T00:36:36.418Z,100674.63
2023-03-26T00:39:06.406Z,100671.94
2023-03-26T00:41:36.830Z,100665.97
2023-03-26T00:44:04.834Z,100665.97
2023-03-26T00:46:33.103Z,100656.50
2023-03-26T00:49:03.809Z,100662.69
2023-03-26T00:51:35.079Z,100648.66
2023-03-26T00:54:02.883Z,100650.28
2023-03-26T00:56:30.842Z,100644.91
2023-03-26T00:59:00.237Z,100651.13
2023-03-26T01:01:30.484Z,100646.56
2023-03-26T01:06:36.275Z,100636.03
2023-03-26T01:09:08.260Z,100634.38
2023-03-26T01:11:36.880Z,100626.31
2023-03-26T01:14:08.261Z,100620.13
2023-03-26T01:16:40.163Z,100620.34
2023-03-26T01:19:13.066Z,100608.78
2023-03-26T01:21:42.318Z,100600.72
2023-03-26T01:24:11.979Z,100596.38
2023-03-26T01:27:10.938Z,100592.88
2023-03-26T01:29:45.514Z,100589.38
2023-03-26T01:32:40.095Z,100587.72
2023-03-26T01:35:18.974Z,100588.78
2023-03-26T01:37:58.872Z,100588.19
2023-03-26T01:40:38.674Z,100585.72
2023-03-26T01:43:12.903Z,100592.16
2023-03-26T01:45:43.313Z,100581.63
2023-03-26T01:48:11.461Z,100566.66
2023-03-26T01:50:39.277Z,100573.56
2023-03-26T01:53:09.144Z,100576.50
2023-03-26T01:55:50.522Z,100574.03
2023-03-26T01:58:29.275Z,100571.56
2023-03-26T02:01:07.325Z,100558.34
2023-03-26T02:03:42.327Z,100552.97
2023-03-26T02:06:17.680Z,100554.84
2023-03-26T02:08:52.889Z,100543.28
2023-03-26T02:11:23.272Z,100544.34
2023-03-26T02:13:52.516Z,100537.31
2023-03-26T02:16:21.732Z,100530.31
2023-03-26T02:18:55.664Z,100525.53
2023-03-26T02:21:26.149Z,100522.84
2023-03-26T02:23:58.016Z,100515.00
2023-03-26T02:26:27.298Z,100516.88
2023-03-26T02:28:55.324Z,100516.88
2023-03-26T02:31:26.299Z,100518.97
2023-03-26T02:33:55.681Z,100509.84
2023-03-26T02:36:27.255Z,100507.97
2023-03-26T02:38:57.983Z,100509.84
2023-03-26T02:41:27.333Z,100508.22
2023-03-26T02:43:55.073Z,100503.66
2023-03-26T02:46:22.918Z,100500.16
2023-03-26T02:48:50.942Z,100490.22
2023-03-26T02:51:19.586Z,100487.75
2023-03-26T02:53:47.452Z,100483.44
2023-03-26T02:56:15.402Z,100478.41
2023-03-26T02:58:44.532Z,100471.41
2023-03-26T03:01:12.391Z,100466.03
2023-03-26T03:03:40.204Z,100457.72
2023-03-26T03:06:09.069Z,100456.09
2023-03-26T03:08:36.911Z,100457.97
2023-03-26T03:11:09.560Z,100457.16
2023-03-26T03:13:37.479Z,100434.34
2023-03-26T03:16:07.771Z,100443.13
2023-03-26T03:18:35.689Z,100436.94
2023-03-26T03:21:03.528Z,100436.94
2023-03-26T03:23:31.350Z,100436.13
2023-03-26T03:25:59.594Z,100427.22
2023-03-26T03:28:27.273Z,100419.97
2023-03-26T03:30:57.530Z,100419.16
2023-03-26T03:33:26.737Z,100414.03
2023-03-26T03:35:54.709Z,100414.03
2023-03-26T03:38:22.743Z,100415.31
2023-03-26T03:40:51.089Z,100413.66
2023-03-26T03:43:18.825Z,100414.72
2023-03-26T03:45:47.420Z,100412.84
2023-03-26T03:48:15.205Z,100403.16
2023-03-26T03:50:44.319Z,100401.28
2023-03-26T03:53:16.175Z,100393.09
2023-03-26T03:55:52.790Z,100391.00
2023-03-26T03:58:22.012Z,100388.56
2023-03-26T04:00:50.218Z,100384.81
2023-03-26T04:03:18.356Z,100382.94
2023-03-26T04:05:49.546Z,100374.28
2023-03-26T04:08:17.669Z,100352.69
2023-03-26T04:10:46.196Z,100368.69
2023-03-26T04:13:15.330Z,100353.63
2023-03-26T04:15:44.433Z,100358.19
2023-03-26T04:18:12.216Z,100351.97
2023-03-26T04:20:46.323Z,100351.16
2023-03-26T04:23:16.017Z,100333.88
2023-03-26T04:25:48.323Z,100336.09
2023-03-26T04:28:23.411Z,100330.72
2023-03-26T04:30:53.726Z,100326.16
2023-03-26T04:33:21.758Z,100313.78
2023-03-26T04:35:49.637Z,100312.97
2023-03-26T04:38:19.080Z,100308.66
2023-03-26T04:40:48.191Z,100305.13
2023-03-26T04:43:18.508Z,100294.38
2023-03-26T04:45:47.987Z,100299.75
2023-03-26T04:48:15.855Z,100287.16
2023-03-26T04:50:44.736Z,100279.91
2023-03-26T04:53:15.284Z,100279.09
2023-03-26T04:55:48.894Z,100271.84
2023-03-26T04:58:17.215Z,100267.53
2023-03-26T05:00:47.442Z,100263.19
2023-03-26T05:03:15.698Z,100265.88
2023-03-26T05:05:43.747Z,100262.38
2023-03-26T05:08:11.636Z,100255.16
2023-03-26T05:10:39.355Z,100254.31
2023-03-26T05:13:08.502Z,100252.69
2023-03-26T05:15:36.288Z,100252.69
2023-03-26T05:18:04.118Z,100258.06
2023-03-26T05:20:32.469Z,100254.56
2023-03-26T05:23:00.357Z,100253.50
2023-03-26T05:25:28.145Z,100244.63
2023-03-26T05:27:55.926Z,100237.88
2023-03-26T05:30:25.469Z,100238.69
2023-03-26T05:32:53.240Z,100233.53
2023-03-26T05:35:21.723Z,100222.78
2023-03-26T05:37:51.521Z,100222.78
2023-03-26T05:40:20.186Z,100210.41
2023-03-26T05:42:48.374Z,100217.66
2023-03-26T05:45:16.581Z,100193.06
2023-03-26T05:47:45.827Z,100206.09
2023-03-26T05:50:13.593Z,100196.41
2023-03-26T05:52:41.320Z,100191.03
2023-03-26T05:55:09.968Z,100189.66
2023-03-26T05:57:37.750Z,100193.72
2023-03-26T06:00:08.894Z,100174.50
2023-03-26T06:02:36.963Z,100181.34
2023-03-26T06:05:07.862Z,100178.91
2023-03-26T06:07:35.668Z,100179.97
2023-03-26T06:10:03.588Z,100177.28
2023-03-26T06:12:31.292Z,100180.78
2023-03-26T06:14:59.017Z,100169.22
2023-03-26T06:17:26.851Z,100167.34
2023-03-26T06:19:54.568Z,100169.22
2023-03-26T06:22:23.639Z,100166.78
2023-03-26T06:24:52.818Z,100165.97
2023-03-26T06:27:20.620Z,100170.53
2023-03-26T06:29:48.356Z,100170.53
2023-03-26T06:32:19.685Z,100170.53
2023-03-26T06:34:48.324Z,100164.63
2023-03-26T06:37:16.107Z,100170.06
2023-03-26T06:39:45.616Z,100169.06
2023-03-26T06:42:13.402Z,100167.78
2023-03-26T06:44:41.157Z,100167.81
2023-03-26T06:47:08.910Z,100166.78
2023-03-26T06:49:38.163Z,100170.06
2023-03-26T06:52:06.457Z,100167.03
2023-03-26T06:54:34.199Z,100162.97
2023-03-26T06:57:03.450Z,100165.41
2023-03-26T06:59:31.494Z,100159.03
2023-03-26T07:01:59.223Z,100156.91
2023-03-26T07:04:27.094Z,100155.06
2023-03-26T07:06:54.972Z,100154.56
2023-03-26T07:09:22.887Z,100151.13
2023-03-26T07:11:50.714Z,100153.63
2023-03-26T07:14:19.782Z,100149.47
2023-03-26T07:16:47.603Z,100149.38
2023-03-26T07:19:15.525Z,100151.16
2023-03-26T07:21:43.840Z,100144.63
2023-03-26T07:24:13.783Z,100140.78
2023-03-26T07:26:52.958Z,100140.22
2023-03-26T07:29:34.819Z,100139.06
2023-03-26T07:34:52.391Z,100129.97
2023-03-26T07:37:34.149Z,100137.81
2023-03-26T07:40:05.941Z,100122.16
2023-03-26T07:42:52.933Z,100131.28
2023-03-26T07:45:27.279Z,100124.19
2023-03-26T07:47:57.155Z,100121.25
2023-03-26T07:50:26.025Z,100116.94
2023-03-26T07:52:54.478Z,100113.09
2023-03-26T07:55:23.055Z,100114.72
2023-03-26T07:58:02.181Z,100111.47
2023-03-26T08:00:38.540Z,100111.47
2023-03-26T08:03:31.333Z,100105.50
2023-03-26T08:06:10.901Z,100106.31
2023-03-26T08:08:49.204Z,100101.19
2023-03-26T08:11:29.279Z,100106.56
2023-03-26T08:14:09.523Z,100102.47
2023-03-26T08:16:45.114Z,100097.69
2023-03-26T08:19:33.085Z,100096.06
2023-03-26T08:22:07.440Z,100105.19
2023-03-26T08:24:41.404Z,100099.81
2023-03-26T08:27:18.767Z,100093.63
2023-03-26T08:29:54.816Z,100100.03
2023-03-26T08:32:24.828Z,100091.16
2023-03-26T08:34:53.096Z,100099.22
2023-03-26T08:37:21.034Z,100101.91
2023-03-26T08:39:48.777Z,100094.66
2023-03-26T08:42:50.266Z,100097.34
2023-03-26T08:45:42.973Z,100091.75
2023-03-26T08:48:56.604Z,100091.75
2023-03-26T08:51:58.029Z,100092.78
2023-03-26T08:54:49.119Z,100090.94
2023-03-26T08:57:39.557Z,100092.78
2023-03-26T09:00:40.862Z,100086.38
2023-03-26T09:03:35.606Z,100092.56
2023-03-26T09:06:26.684Z,100085.56
2023-03-26T09:09:27.313Z,100083.69
2023-03-26T09:12:34.449Z,100085.31
2023-03-26T09:15:44.790Z,100088.00
2023-03-26T09:18:38.503Z,100090.69
2023-03-26T09:21:48.213Z,100087.19
2023-03-26T09:25:06.359Z,100090.69
2023-03-26T09:27:40.263Z,100071.47
2023-03-26T09:30:40.861Z,100081.00
2023-03-26T09:33:38.479Z,100087.19
2023-03-26T09:36:22.409Z,100084.75
2023-03-26T09:38:55.421Z,100090.69
2023-03-26T09:41:39.330Z,100082.63
2023-03-26T09:44:43.537Z,100088.00
2023-03-26T09:47:31.702Z,100088.56
2023-03-26T09:50:16.409Z,100083.78
2023-03-26T09:53:04.522Z,100083.19
2023-03-26T09:55:56.694Z,100084.84
2023-03-26T09:59:05.285Z,100090.22
2023-03-26T10:01:37.562Z,100092.06
2023-03-26T10:04:37.997Z,100078.22
2023-03-26T10:07:15.356Z,100087.75
2023-03-26T10:09:54.472Z,100097.69
2023-03-26T10:12:38.651Z,100095.81
2023-03-26T10:15:25.987Z,100100.38
2023-03-26T10:18:27.005Z,100098.50
2023-03-26T10:21:02.625Z,100100.38
2023-03-26T10:23:57.056Z,100099.31
2023-03-26T10:26:38.418Z,100095.81
2023-03-26T10:29:45.294Z,100102.25
2023-03-26T10:32:23.806Z,100111.13
2023-03-26T10:35:02.645Z,100110.31
2023-03-26T10:37:42.787Z,100103.06
2023-03-26T10:40:21.151Z,100105.75
2023-03-26T10:43:12.437Z,100108.19
2023-03-26T10:45:53.997Z,100107.38
2023-03-26T10:48:41.965Z,100109.00
2023-03-26T10:51:26.055Z,100108.19
2023-03-26T10:53:58.108Z,100110.88
2023-03-26T10:56:29.766Z,100107.38
2023-03-26T10:58:58.332Z,100111.69
2023-03-26T11:01:39.370Z,100096.78
2023-03-26T11:04:19.672Z,100105.50
2023-03-26T11:06:55.760Z,100110.66
2023-03-26T11:09:34.052Z,100107.13
2023-03-26T11:12:25.597Z,100112.50
2023-03-26T11:15:04.502Z,100111.78
2023-03-26T11:17:46.923Z,100118.84
2023-03-26T11:20:19.475Z,100113.50
2023-03-26T11:23:00.370Z,100114.91
2023-03-26T11:25:47.486Z,100113.88
2023-03-26T11:28:33.809Z,100114.44
2023-03-26T11:31:09.996Z,100117.94
2023-03-26T11:33:46.143Z,100117.44
2023-03-26T11:36:20.861Z,100120.91
2023-03-26T11:38:51.441Z,100120.81
2023-03-26T11:41:23.409Z,100124.72
2023-03-26T11:43:56.416Z,100127.78
2023-03-26T11:46:27.072Z,100125.41
2023-03-26T11:48:59.980Z,100137.19
2023-03-26T11:51:32.415Z,100135.94
2023-03-26T11:54:00.767Z,100140.81
2023-03-26T11:56:33.751Z,100134.91
2023-03-26T11:59:05.507Z,100141.09
2023-03-26T12:01:44.770Z,100137.34
2023-03-26T12:04:17.067Z,100138.81
2023-03-26T12:06:53.525Z,100132.22
2023-03-26T12:09:21.570Z,100145.34
2023-03-26T12:11:53.147Z,100140.69
2023-03-26T12:14:25.047Z,100145.72
2023-03-26T12:17:01.716Z,100145.41
2023-03-26T12:19:36.157Z,100149.63
2023-03-26T12:22:03.958Z,100146.47
2023-03-26T12:24:33.833Z,100148.13
2023-03-26T12:27:03.084Z,100143.31
2023-03-26T12:29:34.580Z,100154.06
2023-03-26T12:32:08.693Z,100154.41
2023-03-26T12:34:39.497Z,100144.91
2023-03-26T12:37:09.728Z,100159.50
2023-03-26T12:40:12.007Z,100154.63
2023-03-26T12:44:49.471Z,100153.91
2023-03-26T12:45:22.051Z,100153.91
2023-03-26T12:47:58.313Z,100162.13
2023-03-26T12:50:42.765Z,100161.97
2023-03-26T12:53:34.757Z,100160.75
2023-03-26T12:56:15.537Z,100161.72
2023-03-26T12:59:05.286Z,100166.78
2023-03-26T13:01:45.890Z,100166.22
2023-03-26T13:04:34.240Z,100162.72
2023-03-26T13:07:15.302Z,100176.16
2023-03-26T13:09:55.264Z,100168.56
2023-03-26T13:12:34.023Z,100175.84
2023-03-26T13:15:23.660Z,100182.28
2023-03-26T13:18:07.519Z,100179.00
2023-03-26T13:20:50.319Z,100181.94
2023-03-26T13:23:30.975Z,100181.94
2023-03-26T13:26:09.844Z,100187.56
2023-03-26T13:28:45.308Z,100186.16
2023-03-26T13:31:21.935Z,100187.47
2023-03-26T13:33:59.036Z,100185.84
2023-03-26T13:36:34.492Z,100191.22
2023-03-26T13:39:18.062Z,100191.97
2023-03-26T13:42:00.976Z,100195.81
2023-03-26T13:44:39.140Z,100195.91
2023-03-26T13:47:13.758Z,100197.31
2023-03-26T13:49:45.185Z,100200.22
2023-03-26T13:52:15.348Z,100194.59
2023-03-26T13:54:52.343Z,100199.09
2023-03-26T13:57:26.160Z,100208.31
2023-03-26T14:00:00.760Z,100211.94
2023-03-26T14:02:35.151Z,100211.50
2023-03-26T14:05:08.642Z,100218.91
2023-03-26T14:07:44.226Z,100215.56
2023-03-26T14:10:16.623Z,100212.69
2023-03-26T14:12:55.133Z,100223.63
2023-03-26T14:15:27.871Z,100225.97
2023-03-26T14:18:06.114Z,100233.47
2023-03-26T14:21:02.313Z,100236.66
2023-03-26T14:23:53.524Z,100240.88
2023-03-26T14:26:37.401Z,100245.34
2023-03-26T14:29:31.139Z,100258.69
2023-03-26T14:32:24.205Z,100247.75
2023-03-26T14:35:21.466Z,100256.72
2023-03-26T14:38:04.981Z,100266.34
2023-03-26T14:40:55.278Z,100271.38
2023-03-26T14:43:42.251Z,100277.81
2023-03-26T14:46:22.849Z,100282.03
2023-03-26T14:49:17.828Z,100269.44
2023-03-26T14:52:03.676Z,100291.63
2023-03-26T14:54:36.301Z,100290.34
2023-03-26T14:57:27.144Z,100294.56
2023-03-26T15:00:45.859Z,100305.91
2023-03-26T15:04:01.137Z,100313.63
2023-03-26T15:07:12.904Z,100322.28
2023-03-26T15:10:23.790Z,100334.56
2023-03-26T15:13:22.158Z,100335.25
2023-03-26T15:16:23.022Z,100341.69
2023-03-26T15:19:33.539Z,100341.69
2023-03-26T15:22:45.317Z,100352.22
2023-03-26T15:25:59.855Z,100351.97
2023-03-26T15:29:03.349Z,100362.13
2023-03-26T15:31:57.574Z,100362.63
2023-03-26T15:34:59.333Z,100370.09
2023-03-26T15:37:54.215Z,100387.63
2023-03-26T15:40:37.633Z,100386.81
2023-03-26T15:43:12.545Z,100389.50
2023-03-26T15:45:42.982Z,100396.97
2023-03-26T15:48:30.033Z,100403.63
2023-03-26T15:51:10.006Z,100406.19
2023-03-26T15:53:44.753Z,100408.28
2023-03-26T15:56:23.813Z,100418.22
2023-03-26T15:58:59.422Z,100412.63
2023-03-26T16:01:38.209Z,100422.09
2023-03-26T16:04:22.561Z,100430.97
2023-03-26T16:06:58.472Z,100426.31
2023-03-26T16:09:40.284Z,100430.28
2023-03-26T16:12:28.104Z,100440.56
2023-03-26T16:15:30.769Z,100445.31
2023-03-26T16:18:32.556Z,100444.69
2023-03-26T16:21:37.403Z,100453.19
2023-03-26T16:24:25.842Z,100452.00
2023-03-26T16:27:32.508Z,100455.53
2023-03-26T16:30:29.022Z,100466.91
2023-03-26T16:33:04.078Z,100467.75
2023-03-26T16:35:42.631Z,100473.31
2023-03-26T16:38:16.169Z,100479.03
2023-03-26T16:41:02.399Z,100486.94
2023-03-26T16:43:46.784Z,100498.41
2023-03-26T16:46:28.997Z,100504.75
2023-03-26T16:49:03.357Z,100501.66
2023-03-26T16:51:46.962Z,100501.09
2023-03-26T16:54:23.269Z,100518.06
2023-03-26T16:56:58.172Z,100533.41
2023-03-26T17:00:06.187Z,100534.22
2023-03-26T17:02:51.243Z,100555.63
2023-03-26T17:05:21.915Z,100571.19
2023-03-26T17:08:01.258Z,100566.25
2023-03-26T17:10:36.696Z,100577.72
2023-03-26T17:13:08.723Z,100573.59
2023-03-26T17:15:45.605Z,100587.50
2023-03-26T17:18:28.841Z,100595.69
2023-03-26T17:21:03.419Z,100613.03
2023-03-26T17:23:53.203Z,100606.25
2023-03-26T17:26:25.292Z,100621.09
2023-03-26T17:29:09.593Z,100623.44
2023-03-26T17:31:43.932Z,100635.00
2023-03-26T17:34:54.415Z,100641.44
2023-03-26T17:37:51.051Z,100646.22
2023-03-26T17:40:47.569Z,100652.06
2023-03-26T17:43:37.616Z,100653.56
2023-03-26T17:46:21.560Z,100662.09
2023-03-26T17:48:57.714Z,100674.94
2023-03-26T17:51:38.795Z,100678.69
2023-03-26T17:54:16.173Z,100687.44
2023-03-26T17:56:44.435Z,100689.75
2023-03-26T17:59:23.096Z,100701.56
2023-03-26T18:01:55.505Z,100704.47
2023-03-26T18:04:31.536Z,100718.16
2023-03-26T18:07:29.948Z,100716.50
2023-03-26T18:10:20.220Z,100725.84
2023-03-26T18:13:00.281Z,100723.97
2023-03-26T18:16:02.732Z,100732.50
2023-03-26T18:18:35.086Z,100733.75
2023-03-26T18:21:07.535Z,100747.19
2023-03-26T18:23:38.850Z,100746.59
2023-03-26T18:26:17.535Z,100754.66
2023-03-26T18:28:50.337Z,100756.75
2023-03-26T18:31:20.434Z,100767.75
2023-03-26T18:33:50.079Z,100779.97
2023-03-26T18:36:19.589Z,100786.84
2023-03-26T18:38:48.813Z,100788.34
2023-03-26T18:41:27.221Z,100793.56
2023-03-26T18:43:56.086Z,100805.56
2023-03-26T18:46:25.013Z,100801.47
2023-03-26T18:48:55.170Z,100817.59
2023-03-26T18:51:23.756Z,100816.75
2023-03-26T18:53:55.028Z,100821.53
2023-03-26T18:56:33.761Z,100821.31
2023-03-26T18:59:03.623Z,100833.69
2023-03-26T19:01:34.033Z,100842.69
2023-03-26T19:04:05.253Z,100846.41
2023-03-26T19:06:38.136Z,100855.56
2023-03-26T19:09:19.540Z,100859.94
2023-03-26T19:11:57.083Z,100865.31
2023-03-26T19:14:26.112Z,100865.13
2023-03-26T19:16:58.768Z,100871.38
2023-03-26T19:19:32.446Z,100873.28
2023-03-26T19:22:01.005Z,100887.56
2023-03-26T19:24:28.858Z,100897.28
2023-03-26T19:26:58.191Z,100901.00
2023-03-26T19:29:28.596Z,100911.75
2023-03-26T19:32:03.669Z,100916.53
2023-03-26T19:34:34.910Z,100921.31
2023-03-26T19:37:04.743Z,100924.38
2023-03-26T19:39:41.497Z,100929.53
2023-03-26T19:42:13.890Z,100936.34
2023-03-26T19:44:43.183Z,100939.66
2023-03-26T19:47:19.511Z,100951.66
2023-03-26T19:49:53.981Z,100943.03
2023-03-26T19:52:24.866Z,100958.06
2023-03-26T19:55:01.396Z,100959.53
2023-03-26T19:57:32.868Z,100967.41
2023-03-26T20:00:01.279Z,100967.41
2023-03-26T20:02:29.401Z,100978.56
2023-03-26T20:04:57.220Z,100972.97
2023-03-26T20:07:35.347Z,100979.59
2023-03-26T20:10:05.580Z,100996.09
2023-03-26T20:12:35.026Z,101009.31
2023-03-26T20:15:02.952Z,100992.59
2023-03-26T20:17:34.800Z,101010.34
2023-03-26T20:20:05.736Z,101016.78
2023-03-26T20:22:33.583Z,101019.25
2023-03-26T20:25:03.152Z,101021.72
2023-03-26T20:27:31.046Z,101025.66
2023-03-26T20:30:00.275Z,101037.63
2023-03-26T20:32:28.112Z,101029.78
2023-03-26T20:34:57.716Z,101029.78
2023-03-26T20:37:25.647Z,101039.91
2023-03-26T20:39:53.387Z,101048.59
2023-03-26T20:42:21.444Z,101046.53
2023-03-26T20:44:49.156Z,101062.63
2023-03-26T20:47:18.302Z,101066.97
2023-03-26T20:49:46.088Z,101064.28
2023-03-26T20:52:15.490Z,101076.03
2023-03-26T20:54:43.599Z,101079.16
2023-03-26T20:57:13.428Z,101074.00
2023-03-26T20:59:41.995Z,101075.84
2023-03-26T21:02:11.727Z,101087.81
2023-03-26T21:04:41.527Z,101090.50
2023-03-26T21:07:17.629Z,101088.84
2023-03-26T21:09:46.570Z,101094.03
2023-03-26T21:12:22.218Z,101111.78
2023-03-26T21:14:50.968Z,101111.78
2023-03-26T21:17:21.148Z,101118.59
2023-03-26T21:19:51.903Z,101126.00
2023-03-26T21:22:31.391Z,101141.91
2023-03-26T21:25:12.729Z,101140.66
2023-03-26T21:27:49.527Z,101151.59
2023-03-26T21:30:17.612Z,101158.81
2023-03-26T21:32:46.545Z,101172.84
2023-03-26T21:35:17.147Z,101162.75
2023-03-26T21:37:48.577Z,101169.34
2023-03-26T21:40:18.430Z,101174.09
2023-03-26T21:42:48.227Z,101189.16
2023-03-26T21:45:17.265Z,101193.28
2023-03-26T21:47:46.371Z,101202.75
2023-03-26T21:50:18.303Z,101205.03
2023-03-26T21:52:50.976Z,101212.44
2023-03-26T21:55:20.377Z,101211.63
2023-03-26T21:58:17.126Z,101212.84
2023-03-26T22:00:56.068Z,101217.41
2023-03-26T22:03:29.022Z,101218.44
2023-03-26T22:06:04.343Z,101227.28
2023-03-26T22:08:37.036Z,101228.31
2023-03-26T22:11:04.873Z,101235.53
2023-03-26T22:13:32.614Z,101236.78
2023-03-26T22:16:00.785Z,101246.47
2023-03-26T22:18:30.288Z,101256.16
2023-03-26T22:21:00.041Z,101255.53
2023-03-26T22:23:27.977Z,101261.31
2023-03-26T22:25:56.016Z,101262.53
2023-03-26T22:28:23.914Z,101262.94
2023-03-26T22:30:52.273Z,101261.09
2023-03-26T22:33:20.110Z,101266.66
2023-03-26T22:35:48.144Z,101274.69
2023-03-26T22:38:17.889Z,101283.75
2023-03-26T22:40:45.659Z,101279.81
2023-03-26T22:43:13.390Z,101294.47
2023-03-26T22:45:41.148Z,101297.34
2023-03-26T22:48:08.997Z,101304.56
2023-03-26T22:50:36.828Z,101313.63
2023-03-26T22:53:04.854Z,101316.50
2023-03-26T22:55:33.953Z,101314.66
2023-03-26T22:58:01.705Z,101318.16
2023-03-26T23:00:30.716Z,101326.59
2023-03-26T23:03:00.529Z,101324.31
2023-03-26T23:05:29.338Z,101334.41
2023-03-26T23:07:57.169Z,101345.31
2023-03-26T23:10:24.913Z,101344.50
2023-03-26T23:12:56.688Z,101343.66
2023-03-26T23:15:38.432Z,101350.25
2023-03-26T23:18:06.941Z,101363.03
2023-03-26T23:20:39.154Z,101370.22
2023-03-26T23:23:07.579Z,101381.16
2023-03-26T23:25:35.322Z,101388.56
2023-03-26T23:28:04.790Z,101381.09
2023-03-26T23:30:32.518Z,101381.53
2023-03-26T23:33:01.674Z,101388.94
2023-03-26T23:35:29.472Z,101390.34
2023-03-26T23:37:57.169Z,101395.91
2023-03-26T23:40:24.971Z,101395.06
2023-03-26T23:42:52.687Z,101401.66
2023-03-26T23:45:21.887Z,101406.19
2023-03-26T23:47:49.739Z,101415.88
2023-03-26T23:50:18.042Z,101416.69
2023-03-26T23:52:46.897Z,101422.06
2023-03-26T23:55:14.595Z,101421.88
2023-03-26T23:57:43.211Z,101430.53
